KGCY/GCY METAR and TAF weather

Enter ICAO airport designator
Station Type Date Time Source
KGCY METAR 2019/09/20 20:15 UTC NOAA

KGCY 202015Z AUTO VRB04KT 10SM FEW046 FEW050 27/15 A3024 RMK A01


Station Type Date Time Source
KGCY Decoded METAR 2019/09/20 20:15 UTC NOAA

Station name not available
Sep 20, 2019 - 04:15 PM EDT / 2019.09.20 2015 UTC
Wind: Variable at 5 MPH (4 KT):0
Visibility: 10 mile(s):0
Sky conditions: mostly clear
Temperature: 80 F (27 C)
Dew Point: 59 F (15 C)
Relative Humidity: 47%
Pressure (altimeter): 30.24 in. Hg (1024 hPa)
ob: KGCY 202015Z AUTO VRB04KT 10SM FEW046 FEW050 27/15 A3024 RMK A01
cycle: 20

Station Type Date Time Source
KGCY TAF UTC NOAA

Error!

Example: see airport list